AEE647 LFLL-LGAV
Flight info
| Callsign | AEE647 |
|---|---|
| Flight time | N/A |
| Altitude | 23000 |
| Route | RISOR T47 GEMLA DCT VANAS DCT MEDAM DCT NITAM DCT MOGBO/N0445F370 DCT OLKIS DCT KUGIX DCT DIVKU DCT NOSTO UN7 NEMES |
| Aircraft | A320/M-SDE3FGHIRWY/LB1 |
Departure
| Time | 2026-05-05 12:51 |
|---|---|
| Airport | Lyon Saint-Exupéry Airport (LFLL) |
Arrival
| Time | N/A |
|---|---|
| Airport | Athens Eleftherios Venizelos International Airport (LGAV) |
| Time | Latitude | Longitude | Altitude | Speed | Heading |
|---|---|---|---|---|---|
| 2026-05-05 12:23 | 45.71713 | 5.07968 | 797 ft | 0 kts | 311° |
| 2026-05-05 12:34 | 45.71709 | 5.07975 | 796 ft | 2 kts | 309° |
| 2026-05-05 12:34 | 45.71698 | 5.07998 | 797 ft | 3 kts | 296° |
| 2026-05-05 12:35 | 45.71689 | 5.08023 | 797 ft | 2 kts | 302° |
| 2026-05-05 12:35 | 45.71678 | 5.08045 | 797 ft | 3 kts | 319° |
| 2026-05-05 12:35 | 45.71662 | 5.08060 | 798 ft | 3 kts | 349° |
| 2026-05-05 12:35 | 45.71646 | 5.08060 | 799 ft | 1 kts | 15° |
| 2026-05-05 12:36 | 45.71641 | 5.08058 | 799 ft | 1 kts | 15° |
| 2026-05-05 12:40 | 45.71642 | 5.08059 | 799 ft | 2 kts | 15° |
| 2026-05-05 12:41 | 45.71680 | 5.08078 | 798 ft | 9 kts | 31° |
| 2026-05-05 12:41 | 45.71691 | 5.08165 | 800 ft | 9 kts | 104° |
| 2026-05-05 12:41 | 45.71675 | 5.08259 | 801 ft | 11 kts | 98° |
| 2026-05-05 12:41 | 45.71681 | 5.08377 | 800 ft | 12 kts | 84° |
| 2026-05-05 12:42 | 45.71696 | 5.08471 | 802 ft | 8 kts | 53° |
| 2026-05-05 12:42 | 45.71746 | 5.08488 | 802 ft | 8 kts | 357° |
| 2026-05-05 12:42 | 45.71804 | 5.08481 | 802 ft | 9 kts | 355° |
| 2026-05-05 12:42 | 45.71875 | 5.08472 | 802 ft | 11 kts | 355° |
| 2026-05-05 12:43 | 45.71954 | 5.08462 | 802 ft | 12 kts | 354° |
| 2026-05-05 12:43 | 45.72038 | 5.08452 | 802 ft | 12 kts | 355° |
| 2026-05-05 12:43 | 45.72138 | 5.08442 | 802 ft | 18 kts | 357° |
| 2026-05-05 12:43 | 45.72289 | 5.08421 | 799 ft | 23 kts | 354° |
| 2026-05-05 12:44 | 45.72441 | 5.08403 | 797 ft | 22 kts | 355° |
| 2026-05-05 12:44 | 45.72595 | 5.08383 | 794 ft | 21 kts | 355° |
| 2026-05-05 12:44 | 45.72753 | 5.08364 | 791 ft | 25 kts | 354° |
| 2026-05-05 12:44 | 45.72926 | 5.08343 | 789 ft | 25 kts | 355° |
| 2026-05-05 12:45 | 45.73093 | 5.08323 | 786 ft | 26 kts | 355° |
| 2026-05-05 12:45 | 45.73276 | 5.08300 | 784 ft | 25 kts | 354° |
| 2026-05-05 12:45 | 45.73440 | 5.08281 | 780 ft | 24 kts | 355° |
| 2026-05-05 12:45 | 45.73582 | 5.08263 | 780 ft | 17 kts | 355° |
| 2026-05-05 12:46 | 45.73693 | 5.08266 | 777 ft | 14 kts | 25° |
| 2026-05-05 12:46 | 45.73732 | 5.08371 | 777 ft | 12 kts | 90° |
| 2026-05-05 12:46 | 45.73711 | 5.08497 | 777 ft | 14 kts | 105° |
| 2026-05-05 12:46 | 45.73698 | 5.08566 | 776 ft | 0 kts | 104° |
| 2026-05-05 12:48 | 45.73698 | 5.08567 | 776 ft | 0 kts | 104° |
| 2026-05-05 12:48 | 45.73696 | 5.08575 | 776 ft | 0 kts | 104° |
| 2026-05-05 12:48 | 45.73695 | 5.08579 | 776 ft | 1 kts | 104° |
| 2026-05-05 12:48 | 45.73690 | 5.08606 | 777 ft | 5 kts | 104° |
| 2026-05-05 12:49 | 45.73684 | 5.08657 | 777 ft | 7 kts | 91° |
| 2026-05-05 12:49 | 45.73678 | 5.08717 | 777 ft | 5 kts | 130° |
| 2026-05-05 12:49 | 45.73645 | 5.08719 | 778 ft | 4 kts | 174° |
| 2026-05-05 12:49 | 45.73638 | 5.08720 | 778 ft | 0 kts | 174° |
| 2026-05-05 12:50 | 45.73629 | 5.08721 | 779 ft | 8 kts | 174° |
| 2026-05-05 12:50 | 45.73385 | 5.08752 | 784 ft | 67 kts | 175° |
| 2026-05-05 12:51 | 45.72733 | 5.08832 | 791 ft | 120 kts | 175° |
| 2026-05-05 12:51 | 45.71773 | 5.08941 | 958 ft | 144 kts | 176° |
| 2026-05-05 12:51 | 45.70784 | 5.09055 | 1581 ft | 143 kts | 177° |
| 2026-05-05 12:51 | 45.69767 | 5.09178 | 2046 ft | 152 kts | 180° |
| 2026-05-05 12:52 | 45.68629 | 5.09315 | 2325 ft | 175 kts | 178° |
| 2026-05-05 12:52 | 45.67369 | 5.09659 | 2692 ft | 199 kts | 156° |
| 2026-05-05 12:52 | 45.66313 | 5.11105 | 3100 ft | 228 kts | 120° |
| 2026-05-05 12:52 | 45.65819 | 5.13379 | 3608 ft | 253 kts | 106° |
| 2026-05-05 12:53 | 45.65499 | 5.15954 | 4220 ft | 271 kts | 103° |
| 2026-05-05 12:53 | 45.65182 | 5.18640 | 5191 ft | 276 kts | 102° |
| 2026-05-05 12:53 | 45.64874 | 5.21359 | 6168 ft | 278 kts | 102° |
| 2026-05-05 12:53 | 45.64579 | 5.24118 | 6942 ft | 285 kts | 103° |
| 2026-05-05 12:54 | 45.63945 | 5.29710 | 8727 ft | 287 kts | 103° |
| 2026-05-05 12:54 | 45.63632 | 5.32552 | 9515 ft | 292 kts | 102° |
| 2026-05-05 12:54 | 45.63282 | 5.35426 | 10219 ft | 298 kts | 105° |
| 2026-05-05 12:55 | 45.62841 | 5.38425 | 10569 ft | 318 kts | 106° |
| 2026-05-05 12:55 | 45.62345 | 5.41594 | 10931 ft | 336 kts | 107° |
| 2026-05-05 12:55 | 45.61816 | 5.44917 | 11393 ft | 349 kts | 106° |
| 2026-05-05 12:55 | 45.61280 | 5.48335 | 12102 ft | 355 kts | 107° |
| 2026-05-05 12:56 | 45.60744 | 5.51808 | 12805 ft | 360 kts | 107° |
| 2026-05-05 12:56 | 45.60207 | 5.55315 | 13448 ft | 364 kts | 107° |
| 2026-05-05 12:56 | 45.59666 | 5.58870 | 14061 ft | 368 kts | 107° |
| 2026-05-05 12:56 | 45.59118 | 5.62460 | 14656 ft | 372 kts | 107° |
| 2026-05-05 12:57 | 45.58562 | 5.66081 | 15240 ft | 375 kts | 107° |
| 2026-05-05 12:57 | 45.58023 | 5.69571 | 15807 ft | 379 kts | 107° |
| 2026-05-05 12:57 | 45.57451 | 5.73262 | 16398 ft | 382 kts | 107° |
| 2026-05-05 12:57 | 45.56873 | 5.76975 | 16993 ft | 385 kts | 107° |
| 2026-05-05 12:58 | 45.56287 | 5.80728 | 17650 ft | 390 kts | 107° |
| 2026-05-05 12:58 | 45.55702 | 5.84466 | 18287 ft | 393 kts | 107° |
| 2026-05-05 12:58 | 45.55100 | 5.88294 | 18796 ft | 397 kts | 107° |
| 2026-05-05 12:58 | 45.54493 | 5.92160 | 19352 ft | 401 kts | 107° |
| 2026-05-05 12:59 | 45.54091 | 5.96133 | 19887 ft | 410 kts | 97° |
| 2026-05-05 12:59 | 45.54179 | 6.00231 | 20453 ft | 418 kts | 86° |
| 2026-05-05 12:59 | 45.54565 | 6.04366 | 21004 ft | 422 kts | 86° |
| 2026-05-05 13:00 | 45.54954 | 6.12719 | 22018 ft | 421 kts | 103° |
| 2026-05-05 13:00 | 45.54166 | 6.16706 | 22500 ft | 415 kts | 120° |
| 2026-05-05 13:01 | 45.49642 | 6.27194 | 23761 ft | 419 kts | 128° |
| 2026-05-05 13:01 | 45.48070 | 6.30720 | 24149 ft | 423 kts | 128° |
| 2026-05-05 13:01 | 45.46487 | 6.34270 | 24569 ft | 427 kts | 128° |
| 2026-05-05 13:01 | 45.44889 | 6.37854 | 25017 ft | 430 kts | 128° |
| 2026-05-05 13:02 | 45.43279 | 6.41463 | 25358 ft | 433 kts | 128° |
| 2026-05-05 13:02 | 45.41659 | 6.45091 | 25716 ft | 436 kts | 129° |
| 2026-05-05 13:02 | 45.40027 | 6.48744 | 26053 ft | 438 kts | 128° |
| 2026-05-05 13:02 | 45.38384 | 6.52409 | 26402 ft | 442 kts | 129° |
| 2026-05-05 13:03 | 45.36720 | 6.56113 | 26728 ft | 446 kts | 129° |
| 2026-05-05 13:03 | 45.35045 | 6.59840 | 27006 ft | 449 kts | 130° |
| 2026-05-05 13:03 | 45.33358 | 6.63589 | 27287 ft | 452 kts | 130° |
| 2026-05-05 13:03 | 45.31659 | 6.67362 | 27637 ft | 455 kts | 130° |
| 2026-05-05 13:04 | 45.29946 | 6.71162 | 27994 ft | 458 kts | 130° |
| 2026-05-05 13:04 | 45.28222 | 6.74986 | 28369 ft | 461 kts | 130° |
| 2026-05-05 13:04 | 45.26485 | 6.78830 | 28694 ft | 464 kts | 130° |
| 2026-05-05 13:04 | 45.24738 | 6.82691 | 29036 ft | 467 kts | 130° |
| 2026-05-05 13:05 | 45.23002 | 6.86527 | 29346 ft | 469 kts | 130° |
| 2026-05-05 13:05 | 45.21234 | 6.90432 | 29720 ft | 470 kts | 130° |
| 2026-05-05 13:05 | 45.19467 | 6.94334 | 30136 ft | 470 kts | 130° |
| 2026-05-05 13:05 | 45.17698 | 6.98233 | 30448 ft | 470 kts | 131° |
| 2026-05-05 13:06 | 45.15933 | 7.02116 | 30803 ft | 469 kts | 131° |
| 2026-05-05 13:06 | 45.14165 | 7.05994 | 31272 ft | 467 kts | 131° |
| 2026-05-05 13:06 | 45.12405 | 7.09844 | 31729 ft | 465 kts | 131° |
| 2026-05-05 13:06 | 45.10653 | 7.13672 | 32146 ft | 463 kts | 131° |
| 2026-05-05 13:07 | 45.08901 | 7.17491 | 32508 ft | 461 kts | 131° |
| 2026-05-05 13:07 | 45.07156 | 7.21292 | 32896 ft | 460 kts | 131° |
| 2026-05-05 13:07 | 45.05416 | 7.25078 | 33289 ft | 458 kts | 131° |
| 2026-05-05 13:07 | 45.03680 | 7.28855 | 33691 ft | 458 kts | 131° |
| 2026-05-05 13:08 | 45.01947 | 7.32621 | 34101 ft | 456 kts | 131° |
| 2026-05-05 13:08 | 45.00214 | 7.36377 | 34450 ft | 456 kts | 131° |
| 2026-05-05 13:08 | 44.98498 | 7.40130 | 34826 ft | 457 kts | 128° |
| 2026-05-05 13:08 | 44.97019 | 7.44145 | 34960 ft | 463 kts | 123° |
| 2026-05-05 13:09 | 44.94258 | 7.52339 | 34964 ft | 462 kts | 122° |
| 2026-05-05 13:09 | 44.91501 | 7.60521 | 34985 ft | 462 kts | 122° |
| 2026-05-05 13:10 | 44.88729 | 7.68685 | 34988 ft | 461 kts | 122° |
| 2026-05-05 13:10 | 44.85946 | 7.76814 | 34986 ft | 460 kts | 122° |
| 2026-05-05 13:11 | 44.83155 | 7.84936 | 34981 ft | 460 kts | 122° |
| 2026-05-05 13:11 | 44.80366 | 7.93057 | 34980 ft | 460 kts | 122° |
| 2026-05-05 13:12 | 44.77578 | 8.01166 | 34974 ft | 460 kts | 122° |
| 2026-05-05 13:12 | 44.74775 | 8.09275 | 34981 ft | 461 kts | 122° |
| 2026-05-05 13:13 | 44.71965 | 8.17374 | 34978 ft | 461 kts | 122° |
| 2026-05-05 13:13 | 44.69148 | 8.25473 | 34964 ft | 461 kts | 122° |
| 2026-05-05 13:14 | 44.66334 | 8.33555 | 34981 ft | 460 kts | 122° |
| 2026-05-05 13:14 | 44.63507 | 8.41640 | 34975 ft | 462 kts | 122° |
| 2026-05-05 13:15 | 44.60674 | 8.49744 | 34983 ft | 462 kts | 122° |
| 2026-05-05 13:15 | 44.57830 | 8.57831 | 34975 ft | 462 kts | 122° |
| 2026-05-05 13:16 | 44.55461 | 8.64542 | 34974 ft | 462 kts | 122° |
| 2026-05-05 13:16 | 44.52134 | 8.73938 | 34966 ft | 463 kts | 122° |
| 2026-05-05 13:17 | 44.49725 | 8.80711 | 34974 ft | 463 kts | 122° |
| 2026-05-05 13:17 | 44.46849 | 8.88790 | 34974 ft | 464 kts | 122° |
| 2026-05-05 13:18 | 44.43971 | 8.96868 | 34974 ft | 464 kts | 122° |
| 2026-05-05 13:18 | 44.41574 | 9.03572 | 34972 ft | 464 kts | 122° |
| 2026-05-05 13:19 | 44.40616 | 9.06243 | 34974 ft | 463 kts | 122° |